Time;durP1;ratioP1;P1;durP2;ratioP2;P2;SDS_P1;SDS_P2;PMS_P1;PMS_P2;Temp;Humidity;BMP_temperature;BMP_pressure;BME280_temperature;BME280_humidity;BME280_pressure;Samples;Min_cycle;Max_cycle;Signal;HPM_P1;HPM_P2
2023/12/10 00:02:06;;;;;;;;;2.50;2.50;;;;;;;;5067973;28;9709;-82
2023/12/10 00:04:33;;;;;;;;;4.00;2.00;;;;;;;;5069479;28;9749;-81
2023/12/10 00:07:02;;;;;;;;;5.25;2.00;;;;;;;;5072184;28;9881;-82
2023/12/10 00:09:30;;;;;;;;;2.25;2.00;;;;;;;;5074503;28;9697;-82
2023/12/10 00:11:58;;;;;;;;;4.00;2.50;;;;;;;;5069590;28;9644;-81
2023/12/10 00:14:26;;;;;;;;;5.50;2.25;;;;;;;;5075861;28;9614;-82
2023/12/10 00:16:55;;;;;;;;;10.00;4.00;;;;;;;;5078265;28;9780;-81
2023/12/10 00:19:23;;;;;;;;;4.25;1.00;;;;;;;;5077293;28;9856;-81
2023/12/10 00:21:51;;;;;;;;;3.00;3.00;;;;;;;;5076860;28;9716;-81
2023/12/10 00:24:18;;;;;;;;;6.50;2.00;;;;;;;;5075373;28;9717;-81
2023/12/10 00:26:46;;;;;;;;;1.50;1.00;;;;;;;;5073746;28;9547;-78
2023/12/10 00:29:14;;;;;;;;;4.75;3.00;;;;;;;;5074634;28;9753;-80
2023/12/10 00:31:43;;;;;;;;;2.25;1.50;;;;;;;;5074670;28;9635;-81
2023/12/10 00:34:12;;;;;;;;;5.00;3.00;;;;;;;;5073836;28;9919;-81
2023/12/10 00:36:40;;;;;;;;;4.50;3.00;;;;;;;;5071023;28;10562;-81
2023/12/10 00:39:09;;;;;;;;;8.25;4.00;;;;;;;;5069827;28;9690;-81
2023/12/10 00:41:36;;;;;;;;;2.00;2.00;;;;;;;;5070721;28;9694;-81
2023/12/10 00:44:04;;;;;;;;;5.00;3.00;;;;;;;;5069885;28;9892;-81
2023/12/10 00:46:31;;;;;;;;;2.75;2.75;;;;;;;;5070823;28;9707;-80
2023/12/10 00:48:59;;;;;;;;;2.00;2.00;;;;;;;;5068922;28;9865;-80
2023/12/10 00:51:28;;;;;;;;;3.25;2.00;;;;;;;;5069836;28;9703;-80
2023/12/10 00:53:55;;;;;;;;;5.00;2.00;;;;;;;;5069927;28;9731;-81
2023/12/10 00:56:22;;;;;;;;;5.50;2.50;;;;;;;;5070957;28;9612;-82
2023/12/10 00:58:50;;;;;;;;;5.00;1.00;;;;;;;;5071772;28;10632;-82
2023/12/10 01:01:17;;;;;;;;;3.00;3.00;;;;;;;;5072424;28;10044;-83
2023/12/10 01:03:46;;;;;;;;;1.50;1.50;;;;;;;;5070415;28;9850;-82
2023/12/10 01:06:13;;;;;;;;;4.50;4.50;;;;;;;;5069392;28;9465;-82
2023/12/10 01:08:43;;;;;;;;;2.25;1.00;;;;;;;;5070266;28;9703;-82
2023/12/10 01:11:11;;;;;;;;;7.50;4.00;;;;;;;;5069125;28;9569;-82
2023/12/10 01:13:38;;;;;;;;;6.75;3.50;;;;;;;;5070247;28;9727;-82
2023/12/10 01:16:06;;;;;;;;;3.00;1.00;;;;;;;;5069576;28;9669;-82
2023/12/10 01:18:34;;;;;;;;;2.25;2.25;;;;;;;;5069822;28;9731;-82
2023/12/10 01:21:02;;;;;;;;;8.25;3.75;;;;;;;;5064564;28;9761;-82
2023/12/10 01:23:29;;;;;;;;;3.00;3.00;;;;;;;;5069804;28;9717;-81
2023/12/10 01:25:58;;;;;;;;;3.25;3.00;;;;;;;;5068727;28;9970;-81
2023/12/10 01:28:28;;;;;;;;;4.00;1.00;;;;;;;;5070056;28;9881;-82
2023/12/10 01:30:59;;;;;;;;;3.50;2.00;;;;;;;;5069359;28;9620;-81
2023/12/10 01:33:26;;;;;;;;;2.75;2.75;;;;;;;;5069880;28;9705;-81
2023/12/10 01:35:54;;;;;;;;;5.00;2.00;;;;;;;;5069847;28;9530;-81
2023/12/10 01:38:22;;;;;;;;;2.00;2.00;;;;;;;;5069502;28;9717;-81
2023/12/10 01:40:49;;;;;;;;;4.25;2.75;;;;;;;;5069867;28;9653;-81
2023/12/10 01:43:18;;;;;;;;;3.75;2.00;;;;;;;;5069417;28;10216;-81
2023/12/10 01:45:50;;;;;;;;;2.25;2.25;;;;;;;;5068919;28;9761;-81
2023/12/10 01:48:20;;;;;;;;;2.00;2.00;;;;;;;;5069165;28;9558;-81
2023/12/10 01:50:47;;;;;;;;;2.75;2.75;;;;;;;;5068990;28;9557;-81
2023/12/10 01:53:15;;;;;;;;;5.25;4.00;;;;;;;;5069771;28;9703;-80
2023/12/10 01:55:43;;;;;;;;;4.25;3.50;;;;;;;;5071860;28;9602;-80
2023/12/10 01:58:10;;;;;;;;;3.50;3.25;;;;;;;;5072393;28;9808;-80
2023/12/10 02:00:39;;;;;;;;;3.00;2.00;;;;;;;;5073308;28;9448;-81
2023/12/10 02:03:07;;;;;;;;;5.50;3.00;;;;;;;;5073782;28;9525;-81
2023/12/10 02:05:34;;;;;;;;;3.25;1.75;;;;;;;;5074851;28;9612;-81
2023/12/10 02:08:02;;;;;;;;;4.50;2.25;;;;;;;;5074258;28;9541;-81
2023/12/10 02:10:29;;;;;;;;;5.75;3.75;;;;;;;;5074865;28;9619;-81
2023/12/10 02:12:58;;;;;;;;;4.25;3.25;;;;;;;;5072501;28;9713;-81
2023/12/10 02:15:28;;;;;;;;;3.25;3.00;;;;;;;;5070758;28;9574;-82
2023/12/10 02:17:59;;;;;;;;;4.00;2.75;;;;;;;;5070396;28;9702;-80
2023/12/10 02:20:29;;;;;;;;;4.75;2.25;;;;;;;;5069966;28;9612;-81
2023/12/10 02:23:04;;;;;;;;;5.00;2.00;;;;;;;;5071950;28;9706;-81
2023/12/10 02:25:35;;;;;;;;;5.25;3.50;;;;;;;;5069444;28;9608;-81
2023/12/10 02:28:03;;;;;;;;;4.25;2.25;;;;;;;;5068112;28;9774;-81
2023/12/10 02:30:31;;;;;;;;;5.00;4.00;;;;;;;;5067834;28;9560;-80
2023/12/10 02:33:04;;;;;;;;;6.50;4.00;;;;;;;;5067956;28;10481;-80
2023/12/10 02:35:32;;;;;;;;;3.00;2.50;;;;;;;;5067975;28;9764;-81
2023/12/10 02:37:59;;;;;;;;;4.00;1.25;;;;;;;;5057287;28;9688;-81
2023/12/10 02:40:27;;;;;;;;;5.00;1.75;;;;;;;;5068245;28;9785;-80
2023/12/10 02:42:56;;;;;;;;;2.25;1.25;;;;;;;;5068268;28;9680;-79
2023/12/10 02:45:23;;;;;;;;;1.25;0.00;;;;;;;;5067578;28;9582;-80
2023/12/10 02:47:50;;;;;;;;;3.00;2.00;;;;;;;;5068014;28;9650;-81
2023/12/10 02:50:18;;;;;;;;;4.00;2.50;;;;;;;;5067708;28;10123;-80
2023/12/10 02:52:45;;;;;;;;;5.00;1.75;;;;;;;;5068042;28;9789;-82
2023/12/10 02:55:13;;;;;;;;;4.25;2.25;;;;;;;;5066383;28;9776;-81
2023/12/10 02:57:40;;;;;;;;;6.75;3.50;;;;;;;;5064449;28;9779;-80
2023/12/10 03:00:10;;;;;;;;;6.25;2.00;;;;;;;;5067156;28;9881;-82
2023/12/10 03:02:37;;;;;;;;;6.00;4.00;;;;;;;;5069908;28;9805;-78
2023/12/10 03:05:05;;;;;;;;;2.00;1.25;;;;;;;;5069190;28;9922;-80
2023/12/10 03:07:33;;;;;;;;;5.75;3.00;;;;;;;;5068009;28;9851;-81
2023/12/10 03:10:00;;;;;;;;;5.75;4.00;;;;;;;;5067440;28;9912;-80
2023/12/10 03:12:28;;;;;;;;;8.50;4.75;;;;;;;;5067929;28;9964;-81
2023/12/10 03:14:55;;;;;;;;;4.75;4.00;;;;;;;;5068430;28;9869;-80
2023/12/10 03:17:24;;;;;;;;;2.25;2.25;;;;;;;;5054549;28;9866;-83
2023/12/10 03:19:52;;;;;;;;;4.00;4.00;;;;;;;;5067991;28;9716;-81
2023/12/10 03:22:19;;;;;;;;;3.25;2.50;;;;;;;;5068326;28;9772;-83
2023/12/10 03:24:49;;;;;;;;;1.50;1.50;;;;;;;;5067614;28;9760;-81
2023/12/10 03:27:17;;;;;;;;;3.25;2.00;;;;;;;;5056281;28;9682;-82
2023/12/10 03:29:44;;;;;;;;;3.00;2.00;;;;;;;;5061380;28;9855;-80
2023/12/10 03:32:11;;;;;;;;;5.00;5.00;;;;;;;;5066729;28;10491;-80
2023/12/10 03:34:41;;;;;;;;;5.50;3.50;;;;;;;;5068271;28;9866;-80
2023/12/10 03:37:09;;;;;;;;;3.75;2.00;;;;;;;;5068130;28;10640;-80
2023/12/10 03:39:36;;;;;;;;;4.50;2.25;;;;;;;;5068201;28;9776;-80
2023/12/10 03:42:04;;;;;;;;;4.50;4.50;;;;;;;;5068382;28;9876;-80
2023/12/10 03:44:32;;;;;;;;;6.25;2.00;;;;;;;;5062989;28;10679;-80
2023/12/10 03:47:01;;;;;;;;;1.50;1.50;;;;;;;;5071144;28;9850;-80
2023/12/10 03:49:29;;;;;;;;;2.00;1.25;;;;;;;;5075220;28;9793;-81
2023/12/10 03:52:00;;;;;;;;;3.25;2.00;;;;;;;;5078106;28;9769;-80
2023/12/10 03:54:28;;;;;;;;;5.50;2.00;;;;;;;;5078576;28;9836;-80
2023/12/10 03:56:55;;;;;;;;;3.25;2.50;;;;;;;;5077951;28;9845;-81
2023/12/10 03:59:22;;;;;;;;;2.00;2.00;;;;;;;;5077157;28;9866;-80
2023/12/10 04:01:50;;;;;;;;;4.50;3.00;;;;;;;;5076847;28;9814;-81
2023/12/10 04:04:17;;;;;;;;;2.25;2.00;;;;;;;;5072069;28;9941;-80
2023/12/10 04:06:47;;;;;;;;;4.00;2.25;;;;;;;;5072601;28;9846;-80
2023/12/10 04:09:16;;;;;;;;;4.00;3.75;;;;;;;;5074399;28;9928;-81
2023/12/10 04:11:43;;;;;;;;;10.75;4.00;;;;;;;;5074559;28;10111;-81
2023/12/10 04:14:11;;;;;;;;;7.00;5.00;;;;;;;;5073311;28;10161;-82
2023/12/10 04:16:39;;;;;;;;;2.00;2.00;;;;;;;;5070976;28;10045;-82
2023/12/10 04:19:06;;;;;;;;;5.50;4.00;;;;;;;;5070486;28;10757;-81
2023/12/10 04:21:34;;;;;;;;;4.50;1.00;;;;;;;;5065658;28;9966;-82
2023/12/10 04:24:02;;;;;;;;;3.50;2.25;;;;;;;;5070316;28;9960;-82
2023/12/10 04:26:34;;;;;;;;;4.25;2.50;;;;;;;;5070986;28;10002;-82
2023/12/10 04:29:01;;;;;;;;;3.25;3.25;;;;;;;;5069903;28;9940;-82
2023/12/10 04:31:31;;;;;;;;;6.00;4.00;;;;;;;;5070553;28;9817;-80
2023/12/10 04:34:00;;;;;;;;;5.25;3.00;;;;;;;;5070055;28;10026;-81
2023/12/10 04:36:28;;;;;;;;;3.00;3.00;;;;;;;;5070793;28;9932;-81
2023/12/10 04:38:55;;;;;;;;;4.00;2.25;;;;;;;;5070079;28;9767;-80
2023/12/10 04:41:23;;;;;;;;;6.00;3.00;;;;;;;;5063630;28;9884;-80
2023/12/10 04:43:52;;;;;;;;;5.75;4.00;;;;;;;;5067366;28;10013;-80
2023/12/10 04:46:20;;;;;;;;;4.25;3.25;;;;;;;;5070364;28;9867;-81
2023/12/10 04:48:47;;;;;;;;;2.50;2.50;;;;;;;;5070305;28;10090;-81
2023/12/10 04:51:16;;;;;;;;;1.25;1.25;;;;;;;;5070322;28;9965;-81
2023/12/10 04:53:43;;;;;;;;;4.50;3.00;;;;;;;;5070098;28;9889;-82
2023/12/10 04:56:11;;;;;;;;;4.00;2.75;;;;;;;;5070924;28;10033;-81
2023/12/10 04:58:38;;;;;;;;;5.75;3.00;;;;;;;;5072036;28;10014;-80
2023/12/10 05:01:07;;;;;;;;;4.75;3.00;;;;;;;;5070517;28;10026;-80
2023/12/10 05:03:35;;;;;;;;;4.25;2.00;;;;;;;;5071177;28;10107;-80
2023/12/10 05:06:02;;;;;;;;;7.25;2.00;;;;;;;;5070214;28;10026;-81
2023/12/10 05:08:30;;;;;;;;;7.25;4.25;;;;;;;;5069458;28;9873;-80
2023/12/10 05:11:03;;;;;;;;;5.25;4.00;;;;;;;;5070868;28;9898;-80
2023/12/10 05:13:31;;;;;;;;;4.50;2.25;;;;;;;;5069896;28;9879;-81
2023/12/10 05:16:07;;;;;;;;;2.00;2.00;;;;;;;;5070238;28;9794;-81
2023/12/10 05:18:34;;;;;;;;;6.00;6.00;;;;;;;;5059453;28;9779;-81
2023/12/10 05:21:02;;;;;;;;;10.25;3.25;;;;;;;;5063164;28;10606;-80
2023/12/10 05:23:29;;;;;;;;;5.75;3.75;;;;;;;;5060164;28;9867;-81
2023/12/10 05:25:57;;;;;;;;;6.25;3.50;;;;;;;;5069977;28;9866;-81
2023/12/10 05:28:24;;;;;;;;;7.25;2.75;;;;;;;;5070964;28;9901;-81
2023/12/10 05:30:51;;;;;;;;;4.00;3.00;;;;;;;;5059141;28;9720;-81
2023/12/10 05:33:20;;;;;;;;;6.75;2.00;;;;;;;;5072450;28;9869;-81
2023/12/10 05:35:47;;;;;;;;;6.75;3.00;;;;;;;;5074657;28;9685;-81
2023/12/10 05:38:15;;;;;;;;;4.00;2.50;;;;;;;;5075983;28;9621;-80
2023/12/10 05:40:45;;;;;;;;;7.25;5.25;;;;;;;;5076104;28;9688;-79
2023/12/10 05:43:12;;;;;;;;;2.75;2.50;;;;;;;;5076564;28;9899;-79
2023/12/10 05:45:39;;;;;;;;;3.75;3.75;;;;;;;;5077180;28;9754;-79
2023/12/10 05:48:07;;;;;;;;;6.00;2.75;;;;;;;;5077314;28;9916;-80
2023/12/10 05:50:36;;;;;;;;;5.00;2.75;;;;;;;;5078303;28;9724;-79
2023/12/10 05:53:04;;;;;;;;;4.00;2.00;;;;;;;;5073228;28;9795;-81
2023/12/10 05:55:31;;;;;;;;;4.00;2.25;;;;;;;;5071935;28;10110;-81
2023/12/10 05:58:01;;;;;;;;;7.75;3.25;;;;;;;;5072339;28;9765;-81
2023/12/10 06:00:28;;;;;;;;;3.25;1.75;;;;;;;;5070755;28;9562;-80
2023/12/10 06:02:55;;;;;;;;;6.50;3.00;;;;;;;;5071190;28;9769;-81
2023/12/10 06:05:23;;;;;;;;;3.25;2.50;;;;;;;;5056683;28;9850;-80
2023/12/10 06:07:52;;;;;;;;;5.00;2.25;;;;;;;;5068664;28;9763;-81
2023/12/10 06:10:21;;;;;;;;;9.50;2.50;;;;;;;;5068875;28;9711;-81
2023/12/10 06:12:49;;;;;;;;;4.50;3.00;;;;;;;;5067895;28;10037;-81
2023/12/10 06:15:17;;;;;;;;;4.75;2.00;;;;;;;;5068577;28;9685;-81
2023/12/10 06:17:44;;;;;;;;;5.00;3.00;;;;;;;;5068535;28;9745;-81
2023/12/10 06:20:12;;;;;;;;;4.50;3.00;;;;;;;;5067242;28;10003;-81
2023/12/10 06:22:41;;;;;;;;;4.25;2.75;;;;;;;;5064967;28;9764;-82
2023/12/10 06:25:10;;;;;;;;;1.00;1.00;;;;;;;;5068736;28;9757;-80
2023/12/10 06:27:37;;;;;;;;;3.00;1.25;;;;;;;;5068111;28;9844;-81
2023/12/10 06:30:06;;;;;;;;;5.00;3.25;;;;;;;;5067602;28;9868;-80
2023/12/10 06:32:33;;;;;;;;;2.00;2.00;;;;;;;;5067976;28;10743;-81
2023/12/10 06:35:01;;;;;;;;;3.00;2.00;;;;;;;;5068356;28;9927;-81
2023/12/10 06:37:28;;;;;;;;;4.50;1.75;;;;;;;;5068074;28;9974;-80
2023/12/10 06:39:55;;;;;;;;;4.00;2.00;;;;;;;;5068454;28;10002;-80
2023/12/10 06:42:24;;;;;;;;;3.00;3.00;;;;;;;;5068013;28;10704;-81
2023/12/10 06:44:52;;;;;;;;;2.75;1.50;;;;;;;;5068419;28;9931;-81
2023/12/10 06:47:19;;;;;;;;;5.00;2.00;;;;;;;;5087177;28;9920;-81
2023/12/10 06:49:47;;;;;;;;;5.00;2.00;;;;;;;;5068622;28;9849;-80
2023/12/10 06:52:16;;;;;;;;;2.50;2.50;;;;;;;;5067316;28;10042;-81
2023/12/10 06:54:43;;;;;;;;;4.25;1.75;;;;;;;;5068326;28;9842;-81
2023/12/10 06:57:11;;;;;;;;;8.50;4.75;;;;;;;;5067461;28;9920;-80
2023/12/10 06:59:39;;;;;;;;;10.25;2.00;;;;;;;;5067853;28;9933;-81
2023/12/10 07:02:07;;;;;;;;;2.00;2.00;;;;;;;;5067307;28;9862;-80
2023/12/10 07:04:36;;;;;;;;;2.75;2.75;;;;;;;;5068120;28;9941;-80
2023/12/10 07:07:03;;;;;;;;;3.50;2.25;;;;;;;;5068289;28;9771;-81
2023/12/10 07:09:31;;;;;;;;;4.00;3.75;;;;;;;;5067988;28;10019;-80
2023/12/10 07:12:01;;;;;;;;;4.00;2.00;;;;;;;;5067847;28;10021;-80
2023/12/10 07:14:31;;;;;;;;;3.00;1.25;;;;;;;;5057913;28;9785;-81
2023/12/10 07:17:00;;;;;;;;;2.25;2.25;;;;;;;;5058030;28;9860;-82
2023/12/10 07:19:28;;;;;;;;;3.50;2.75;;;;;;;;5068219;28;9851;-81
2023/12/10 07:21:55;;;;;;;;;3.00;1.50;;;;;;;;5068677;28;10029;-81
2023/12/10 07:24:23;;;;;;;;;5.00;3.00;;;;;;;;5070972;28;10015;-79
2023/12/10 07:26:50;;;;;;;;;3.00;1.75;;;;;;;;5074829;28;9858;-80
2023/12/10 07:29:18;;;;;;;;;3.25;2.25;;;;;;;;5076863;28;9670;-80
2023/12/10 07:31:45;;;;;;;;;4.75;4.00;;;;;;;;5077159;28;9664;-80
2023/12/10 07:34:15;;;;;;;;;5.50;2.75;;;;;;;;5077328;28;9752;-81
2023/12/10 07:36:42;;;;;;;;;3.25;1.75;;;;;;;;5104569;28;9624;-81
2023/12/10 07:39:09;;;;;;;;;5.50;2.50;;;;;;;;5076746;28;9811;-80
2023/12/10 07:41:39;;;;;;;;;5.50;4.00;;;;;;;;5071260;28;9963;-80
2023/12/10 07:44:07;;;;;;;;;4.00;3.00;;;;;;;;5068237;28;9882;-82
2023/12/10 07:46:34;;;;;;;;;5.25;3.50;;;;;;;;5074372;28;9770;-80
2023/12/10 07:49:01;;;;;;;;;10.00;3.50;;;;;;;;5075166;28;9757;-81
2023/12/10 07:51:30;;;;;;;;;6.50;3.50;;;;;;;;5075265;28;9785;-86
2023/12/10 07:54:00;;;;;;;;;5.75;3.00;;;;;;;;5072933;28;9738;-79
2023/12/10 07:56:27;;;;;;;;;3.00;2.25;;;;;;;;5064126;28;9800;-82
2023/12/10 07:58:55;;;;;;;;;4.00;3.00;;;;;;;;5071589;28;9800;-80
2023/12/10 08:01:22;;;;;;;;;3.75;3.00;;;;;;;;5071067;28;9724;-83
2023/12/10 08:03:49;;;;;;;;;4.50;2.00;;;;;;;;5072146;28;9714;-81
2023/12/10 08:06:16;;;;;;;;;3.75;3.75;;;;;;;;5071648;28;9607;-91
2023/12/10 08:08:45;;;;;;;;;4.00;4.00;;;;;;;;5073018;28;9686;-91
2023/12/10 08:11:13;;;;;;;;;2.25;2.00;;;;;;;;5072764;28;9738;-84
2023/12/10 08:13:40;;;;;;;;;5.50;2.50;;;;;;;;5071890;28;9707;-85
2023/12/10 08:16:10;;;;;;;;;3.00;1.00;;;;;;;;5070825;28;9715;-83
2023/12/10 08:18:38;;;;;;;;;4.75;2.50;;;;;;;;5071275;28;9639;-83
2023/12/10 08:21:05;;;;;;;;;4.75;4.50;;;;;;;;5065908;28;9621;-80
2023/12/10 08:23:32;;;;;;;;;4.00;4.00;;;;;;;;5071699;28;9769;-75
2023/12/10 08:26:01;;;;;;;;;3.50;2.25;;;;;;;;5071392;28;9749;-85
2023/12/10 08:28:31;;;;;;;;;4.00;2.00;;;;;;;;5071019;28;9716;-77
2023/12/10 08:30:59;;;;;;;;;4.75;3.00;;;;;;;;5069788;28;9547;-78
2023/12/10 08:33:26;;;;;;;;;4.00;1.75;;;;;;;;5071063;28;9683;-78
2023/12/10 08:35:53;;;;;;;;;2.00;2.00;;;;;;;;5070391;28;9468;-76
2023/12/10 08:38:21;;;;;;;;;5.50;3.00;;;;;;;;5070204;28;9475;-80
2023/12/10 08:40:48;;;;;;;;;5.25;3.00;;;;;;;;5070603;28;9625;-79
2023/12/10 08:43:17;;;;;;;;;6.25;3.00;;;;;;;;5071055;28;9621;-78
2023/12/10 08:45:45;;;;;;;;;0.00;0.00;;;;;;;;5072051;28;9533;-79
2023/12/10 08:48:12;;;;;;;;;8.75;3.50;;;;;;;;5070116;28;9469;-79
2023/12/10 08:50:39;;;;;;;;;5.00;3.25;;;;;;;;5070374;28;10290;-76
2023/12/10 08:53:06;;;;;;;;;6.00;4.00;;;;;;;;5070110;28;9610;-81
2023/12/10 08:55:34;;;;;;;;;5.75;3.00;;;;;;;;5070514;28;10256;-78
2023/12/10 08:58:03;;;;;;;;;3.25;1.75;;;;;;;;5063212;28;9634;-80
2023/12/10 09:00:32;;;;;;;;;2.00;2.00;;;;;;;;5064159;28;9466;-77
2023/12/10 09:02:59;;;;;;;;;4.00;2.50;;;;;;;;5069384;28;9470;-76
2023/12/10 09:05:27;;;;;;;;;4.50;3.00;;;;;;;;5070588;28;9491;-78
2023/12/10 09:07:54;;;;;;;;;5.50;3.50;;;;;;;;5070215;28;9570;-80
2023/12/10 09:10:21;;;;;;;;;5.50;3.00;;;;;;;;5070371;28;9534;-75
2023/12/10 09:12:49;;;;;;;;;10.00;3.25;;;;;;;;5070639;28;9629;-79
2023/12/10 09:15:16;;;;;;;;;1.25;1.25;;;;;;;;5072352;28;9613;-82
2023/12/10 09:17:45;;;;;;;;;5.00;2.75;;;;;;;;5072974;28;9480;-81
2023/12/10 09:20:12;;;;;;;;;6.75;3.00;;;;;;;;5071858;28;9469;-81
2023/12/10 09:22:41;;;;;;;;;3.00;1.75;;;;;;;;5074212;28;9618;-80
2023/12/10 09:25:09;;;;;;;;;4.75;2.25;;;;;;;;5073022;28;9534;-78
2023/12/10 09:27:36;;;;;;;;;5.50;2.00;;;;;;;;5073011;28;9596;-79
2023/12/10 09:30:04;;;;;;;;;4.75;4.75;;;;;;;;5072105;28;10355;-78
2023/12/10 09:32:31;;;;;;;;;5.75;5.50;;;;;;;;5069631;28;9606;-79
2023/12/10 09:35:04;;;;;;;;;4.50;3.00;;;;;;;;5070159;28;9702;-72
2023/12/10 09:37:31;;;;;;;;;6.50;3.75;;;;;;;;5070455;28;9607;-80
2023/12/10 09:39:59;;;;;;;;;4.00;3.00;;;;;;;;5072131;28;9636;-75
2023/12/10 09:42:27;;;;;;;;;5.75;2.75;;;;;;;;5070500;28;9445;-82
2023/12/10 09:44:54;;;;;;;;;3.50;3.25;;;;;;;;5069502;28;9622;-80
2023/12/10 09:47:24;;;;;;;;;5.00;2.50;;;;;;;;5067865;28;9539;-78
2023/12/10 09:49:53;;;;;;;;;7.25;2.50;;;;;;;;5059800;28;9521;-82
2023/12/10 09:52:23;;;;;;;;;5.75;4.00;;;;;;;;5068341;28;10309;-79
2023/12/10 09:54:53;;;;;;;;;4.00;2.75;;;;;;;;5068864;28;9585;-79
2023/12/10 09:57:20;;;;;;;;;3.25;2.00;;;;;;;;5068228;28;9549;-84
2023/12/10 09:59:50;;;;;;;;;6.25;3.75;;;;;;;;5068070;28;10382;-74
2023/12/10 10:02:17;;;;;;;;;2.00;2.00;;;;;;;;5068539;28;9681;-81
2023/12/10 10:04:45;;;;;;;;;3.00;3.00;;;;;;;;5068541;28;9625;-75
2023/12/10 10:07:13;;;;;;;;;3.25;3.00;;;;;;;;5068774;28;9580;-76
2023/12/10 10:09:43;;;;;;;;;5.00;3.00;;;;;;;;5069055;28;9522;-75
2023/12/10 10:12:13;;;;;;;;;3.00;2.00;;;;;;;;5070850;28;9313;-81
2023/12/10 10:14:41;;;;;;;;;7.25;2.00;;;;;;;;5067311;28;9473;-82
2023/12/10 10:17:08;;;;;;;;;5.33;4.33;;;;;;;;5068739;28;9442;-83
2023/12/10 10:19:35;;;;;;;;;3.75;3.75;;;;;;;;5068810;28;9319;-79
2023/12/10 10:22:03;;;;;;;;;5.33;2.00;;;;;;;;5064626;28;9530;-79
2023/12/10 10:24:32;;;;;;;;;5.25;3.75;;;;;;;;5067935;28;9376;-80
2023/12/10 10:27:01;;;;;;;;;5.00;3.00;;;;;;;;5061394;28;9411;-82
2023/12/10 10:29:34;;;;;;;;;1.00;1.00;;;;;;;;5069526;28;9372;-74
2023/12/10 10:32:01;;;;;;;;;3.25;3.25;;;;;;;;5068647;28;9341;-79
2023/12/10 10:34:29;;;;;;;;;3.00;1.00;;;;;;;;5065963;28;10335;-77
2023/12/10 10:37:00;;;;;;;;;5.00;3.75;;;;;;;;5068370;28;9400;-80
2023/12/10 10:39:29;;;;;;;;;3.00;3.00;;;;;;;;5067945;28;9477;-78
2023/12/10 10:41:58;;;;;;;;;3.00;3.00;;;;;;;;5068707;28;10194;-78
2023/12/10 10:44:30;;;;;;;;;9.33;4.33;;;;;;;;5069539;28;9400;-78
2023/12/10 10:46:58;;;;;;;;;5.25;3.75;;;;;;;;5070491;28;9391;-77
2023/12/10 10:49:28;;;;;;;;;4.00;4.00;;;;;;;;5068356;28;9472;-78
2023/12/10 10:51:59;;;;;;;;;3.75;3.75;;;;;;;;5059779;28;10274;-77
2023/12/10 10:54:28;;;;;;;;;4.67;2.33;;;;;;;;5060609;28;9459;-80
2023/12/10 10:56:55;;;;;;;;;3.00;3.00;;;;;;;;5068431;28;9474;-77
2023/12/10 10:59:31;;;;;;;;;5.75;4.50;;;;;;;;5069394;28;9593;-80
2023/12/10 11:01:59;;;;;;;;;6.00;4.00;;;;;;;;5076361;28;9648;-73
2023/12/10 11:04:34;;;;;;;;;7.50;7.00;;;;;;;;5073232;28;9648;-79
2023/12/10 11:07:03;;;;;;;;;8.75;7.00;;;;;;;;5072807;28;9530;-78
2023/12/10 11:09:31;;;;;;;;;5.00;5.00;;;;;;;;5071968;28;9473;-78
2023/12/10 11:11:59;;;;;;;;;7.00;4.50;;;;;;;;5072637;28;9771;-74
2023/12/10 11:14:28;;;;;;;;;10.50;8.00;;;;;;;;5072006;28;9781;-80
2023/12/10 11:17:01;;;;;;;;;3.25;3.00;;;;;;;;5072231;28;9735;-78
2023/12/10 11:19:31;;;;;;;;;7.50;4.00;;;;;;;;5072129;28;9842;-78
2023/12/10 11:22:02;;;;;;;;;4.00;4.00;;;;;;;;5069326;28;9465;-74
2023/12/10 11:24:32;;;;;;;;;7.50;4.25;;;;;;;;5068658;28;9657;-74
2023/12/10 11:27:00;;;;;;;;;3.25;3.25;;;;;;;;5069822;28;9459;-79
2023/12/10 11:29:30;;;;;;;;;5.50;5.00;;;;;;;;5070470;28;9444;-79
2023/12/10 11:32:01;;;;;;;;;6.50;5.50;;;;;;;;5068432;28;9412;-77
2023/12/10 11:34:29;;;;;;;;;4.33;4.33;;;;;;;;5067471;28;9529;-77
2023/12/10 11:36:58;;;;;;;;;2.00;1.00;;;;;;;;5067703;28;9409;-75
2023/12/10 11:39:30;;;;;;;;;2.67;2.67;;;;;;;;5057543;28;9260;-78
2023/12/10 11:41:57;;;;;;;;;6.33;4.00;;;;;;;;5067539;28;9310;-79
2023/12/10 11:44:25;;;;;;;;;4.00;4.00;;;;;;;;5067616;28;9405;-77
2023/12/10 11:46:57;;;;;;;;;6.33;3.33;;;;;;;;5066841;28;9331;-76
2023/12/10 11:49:26;;;;;;;;;6.67;3.67;;;;;;;;5067814;28;9327;-80
2023/12/10 11:51:54;;;;;;;;;2.00;2.00;;;;;;;;5067094;28;9245;-76
2023/12/10 11:54:21;;;;;;;;;0.67;0.67;;;;;;;;5066822;28;9106;-73
2023/12/10 11:56:51;;;;;;;;;5.00;3.33;;;;;;;;5067026;28;9104;-75
2023/12/10 11:59:19;;;;;;;;;4.33;3.33;;;;;;;;5067663;28;9381;-75
2023/12/10 12:01:48;;;;;;;;;4.33;2.67;;;;;;;;5063489;28;10033;-77
2023/12/10 12:04:16;;;;;;;;;2.00;2.00;;;;;;;;5067101;28;9326;-80
2023/12/10 12:06:44;;;;;;;;;2.67;2.67;;;;;;;;5066651;28;9448;-81
2023/12/10 12:09:15;;;;;;;;;8.33;4.00;;;;;;;;5067286;28;9183;-81
2023/12/10 12:11:42;;;;;;;;;2.00;2.00;;;;;;;;5070868;28;9178;-79
2023/12/10 12:14:16;;;;;;;;;3.00;3.00;;;;;;;;5073702;28;9061;-76
2023/12/10 12:16:43;;;;;;;;;4.00;3.00;;;;;;;;5072991;28;9121;-84
2023/12/10 12:19:11;;;;;;;;;3.00;2.67;;;;;;;;5071515;28;9243;-84
2023/12/10 12:21:38;;;;;;;;;2.00;2.00;;;;;;;;5065302;28;8993;-81
2023/12/10 12:24:07;;;;;;;;;5.00;3.33;;;;;;;;5070826;28;9195;-79
2023/12/10 12:26:35;;;;;;;;;7.67;5.67;;;;;;;;5071142;28;9152;-84
2023/12/10 12:29:06;;;;;;;;;5.33;2.00;;;;;;;;5073249;28;9153;-84
2023/12/10 12:31:38;;;;;;;;;2.33;2.33;;;;;;;;5069881;28;9758;-81
2023/12/10 12:34:06;;;;;;;;;3.67;3.00;;;;;;;;5072224;28;9251;-78
2023/12/10 12:36:44;;;;;;;;;4.00;3.00;;;;;;;;5073947;28;9177;-82
2023/12/10 12:39:31;;;;;;;;;4.00;2.00;;;;;;;;5074154;28;9104;-81
2023/12/10 12:42:00;;;;;;;;;2.67;1.67;;;;;;;;5071764;28;9163;-79
2023/12/10 12:44:32;;;;;;;;;6.33;3.00;;;;;;;;5072237;28;8951;-74
2023/12/10 12:47:05;;;;;;;;;2.67;2.67;;;;;;;;5072855;28;8937;-82
2023/12/10 12:49:32;;;;;;;;;4.25;3.00;;;;;;;;5074721;28;9870;-83
2023/12/10 12:52:02;;;;;;;;;1.67;1.67;;;;;;;;5074199;28;8965;-84
2023/12/10 12:54:31;;;;;;;;;3.67;2.00;;;;;;;;5074774;28;8970;-82
2023/12/10 12:57:02;;;;;;;;;5.00;2.00;;;;;;;;5074601;28;8916;-77
2023/12/10 12:59:32;;;;;;;;;3.00;2.00;;;;;;;;5076135;28;8950;-80
2023/12/10 13:01:59;;;;;;;;;2.00;2.00;;;;;;;;5073700;28;8966;-80
2023/12/10 13:04:27;;;;;;;;;2.00;2.00;;;;;;;;5076581;28;8853;-84
2023/12/10 13:06:54;;;;;;;;;3.25;2.00;;;;;;;;5076061;28;8863;-76
2023/12/10 13:09:26;;;;;;;;;3.25;3.25;;;;;;;;5073210;28;8881;-85
2023/12/10 13:11:56;;;;;;;;;4.00;4.00;;;;;;;;5064503;28;9672;-82
2023/12/10 13:14:24;;;;;;;;;0.33;0.33;;;;;;;;5072972;28;9096;-82
2023/12/10 13:16:51;;;;;;;;;5.50;4.00;;;;;;;;5073408;28;8967;-78
2023/12/10 13:19:19;;;;;;;;;1.00;1.00;;;;;;;;5072316;28;8854;-81
2023/12/10 13:21:46;;;;;;;;;5.33;4.67;;;;;;;;5069476;28;8839;-79
2023/12/10 13:24:17;;;;;;;;;4.00;3.75;;;;;;;;5069984;28;8936;-81
2023/12/10 13:26:45;;;;;;;;;5.50;2.75;;;;;;;;5069835;28;8869;-77
2023/12/10 13:29:13;;;;;;;;;2.67;2.67;;;;;;;;5069120;28;8874;-77
2023/12/10 13:31:47;;;;;;;;;2.00;2.00;;;;;;;;5069338;28;9015;-80
2023/12/10 13:34:14;;;;;;;;;6.25;3.00;;;;;;;;5069034;28;8984;-80
2023/12/10 13:36:45;;;;;;;;;4.67;3.67;;;;;;;;5069424;28;8866;-76
2023/12/10 13:39:12;;;;;;;;;3.00;0.00;;;;;;;;5069054;28;9016;-79
2023/12/10 13:41:39;;;;;;;;;3.00;3.00;;;;;;;;5069552;28;8999;-80
2023/12/10 13:44:07;;;;;;;;;3.00;3.00;;;;;;;;5069302;28;9010;-79
2023/12/10 13:46:35;;;;;;;;;5.00;3.00;;;;;;;;5069892;28;8966;-75
2023/12/10 13:49:04;;;;;;;;;2.00;2.00;;;;;;;;5073179;28;9001;-78
2023/12/10 13:51:31;;;;;;;;;5.00;4.67;;;;;;;;5069414;28;9104;-75
2023/12/10 13:54:00;;;;;;;;;6.00;4.00;;;;;;;;5068272;28;9158;-78
2023/12/10 13:56:29;;;;;;;;;3.00;3.00;;;;;;;;5069302;28;9035;-78
2023/12/10 13:58:56;;;;;;;;;2.67;2.00;;;;;;;;5069115;28;8929;-77
2023/12/10 14:01:24;;;;;;;;;5.00;2.00;;;;;;;;5068833;28;8962;-81
2023/12/10 14:03:54;;;;;;;;;4.33;4.33;;;;;;;;5069321;28;9025;-82
2023/12/10 14:06:22;;;;;;;;;6.00;3.00;;;;;;;;5068965;28;9028;-81
2023/12/10 14:08:49;;;;;;;;;3.00;3.00;;;;;;;;5069367;28;8943;-83
2023/12/10 14:11:16;;;;;;;;;4.00;4.00;;;;;;;;5068511;28;8951;-83
2023/12/10 14:13:45;;;;;;;;;5.67;3.00;;;;;;;;5069049;28;9019;-77
2023/12/10 14:16:12;;;;;;;;;7.00;4.00;;;;;;;;5068132;28;9104;-79
2023/12/10 14:18:40;;;;;;;;;6.00;4.33;;;;;;;;5068725;28;9339;-79
2023/12/10 14:21:09;;;;;;;;;7.33;4.00;;;;;;;;5068570;28;9014;-79
2023/12/10 14:23:36;;;;;;;;;5.00;5.00;;;;;;;;5068942;28;9241;-79
2023/12/10 14:26:04;;;;;;;;;4.33;3.00;;;;;;;;5068507;28;9182;-81
2023/12/10 14:28:31;;;;;;;;;5.00;3.67;;;;;;;;5068778;28;9286;-81
2023/12/10 14:30:59;;;;;;;;;5.67;3.00;;;;;;;;5067548;28;8982;-79
2023/12/10 14:33:26;;;;;;;;;8.00;5.00;;;;;;;;5069579;28;9254;-78
2023/12/10 14:35:54;;;;;;;;;5.00;3.00;;;;;;;;5069855;28;9254;-78
2023/12/10 14:38:22;;;;;;;;;3.67;3.67;;;;;;;;5069897;28;9305;-77
2023/12/10 14:40:50;;;;;;;;;5.00;3.00;;;;;;;;5071557;28;9122;-77
2023/12/10 14:43:17;;;;;;;;;6.33;3.00;;;;;;;;5071575;28;9271;-77
2023/12/10 14:45:44;;;;;;;;;6.67;3.00;;;;;;;;5064984;28;9181;-78
2023/12/10 14:48:12;;;;;;;;;6.67;2.00;;;;;;;;5073129;28;9107;-78
2023/12/10 14:50:39;;;;;;;;;4.75;3.25;;;;;;;;5069260;28;9236;-78
2023/12/10 14:53:09;;;;;;;;;5.50;4.00;;;;;;;;5071314;28;9502;-76
2023/12/10 14:55:39;;;;;;;;;5.00;4.00;;;;;;;;5070711;28;9743;-79
2023/12/10 14:58:06;;;;;;;;;8.25;5.00;;;;;;;;5067749;28;9604;-76
2023/12/10 15:00:40;;;;;;;;;8.50;4.25;;;;;;;;5067888;28;9468;-76
2023/12/10 15:03:07;;;;;;;;;6.75;5.25;;;;;;;;5061126;28;9545;-77